Time;durP1;ratioP1;P1;durP2;ratioP2;P2;SDS_P1;SDS_P2;PMS_P1;PMS_P2;Temp;Humidity;BMP_temperature;BMP_pressure;BME280_temperature;BME280_humidity;BME280_pressure;Samples;Min_cycle;Max_cycle;Signal;HPM_P1;HPM_P2
2021/04/25 00:00:29;;;;;;;;;;;;;;;;;;5093852;28;19909;-59
2021/04/25 00:02:55;;;;;;;;;;;;;;;;;;5084517;28;19978;-61
2021/04/25 00:05:21;;;;;;;;;;;;;;;;;;5099036;28;19934;-56
2021/04/25 00:07:47;;;;;;;;;;;;;;;;;;5093643;28;20016;-56
2021/04/25 00:10:13;;;;;;;;;;;;;;;;;;5093708;28;20011;-58
2021/04/25 00:12:43;;;;;;;;;;;;;;;;;;5093807;28;19912;-57
2021/04/25 00:15:09;;;;;;;;;;;;;;;;;;5096926;28;20362;-58
2021/04/25 00:17:34;;;;;;;;;;;;;;;;;;5096175;28;19908;-60
2021/04/25 00:20:00;;;;;;;;;;;;;;;;;;5103090;28;19952;-57
2021/04/25 00:22:26;;;;;;;;;;;;;;;;;;5100045;28;20007;-58
2021/04/25 00:24:52;;;;;;;;;;;;;;;;;;5094663;28;20000;-58
2021/04/25 00:27:18;;;;;;;;;;;;;;;;;;5095156;28;19919;-59
2021/04/25 00:29:44;;;;;;;;;;;;;;;;;;5094467;28;19908;-55
2021/04/25 00:32:10;;;;;;;;;;;;;;;;;;5104866;28;19973;-58
2021/04/25 00:34:36;;;;;;;;;;;;;;;;;;5114990;28;20331;-58
2021/04/25 00:37:02;;;;;;;;;;;;;;;;;;5115429;28;20316;-56
2021/04/25 00:39:28;;;;;;;;;;;;;;;;;;5114504;28;19918;-59
2021/04/25 00:41:54;;;;;;;;;;;;;;;;;;5113872;28;19911;-58
2021/04/25 00:44:20;;;;;;;;;;;;;;;;;;5113594;28;19908;-52
2021/04/25 00:46:46;;;;;;;;;;;;;;;;;;5113109;28;19962;-59
2021/04/25 00:49:12;;;;;;;;;;;;;;;;;;5113867;28;19930;-57
2021/04/25 00:51:38;;;;;;;;;;;;;;;;;;5113136;28;19927;-58
2021/04/25 00:54:04;;;;;;;;;;;;;;;;;;5112965;28;19908;-57
2021/04/25 00:56:30;;;;;;;;;;;;;;;;;;5099088;28;19994;-57
2021/04/25 00:58:56;;;;;;;;;;;;;;;;;;5093025;28;20007;-57
2021/04/25 01:01:26;;;;;;;;;;;;;;;;;;5074581;28;19995;-57
2021/04/25 01:03:51;;;;;;;;;;;;;;;;;;5097110;28;19930;-55
2021/04/25 01:06:17;;;;;;;;;;;;;;;;;;5102185;28;19908;-58
2021/04/25 01:08:43;;;;;;;;;;;;;;;;;;5092413;28;19965;-58
2021/04/25 01:11:09;;;;;;;;;;;;;;;;;;5092498;28;19957;-56
2021/04/25 01:13:35;;;;;;;;;;;;;;;;;;5107637;28;20377;-58
2021/04/25 01:16:01;;;;;;;;;;;;;;;;;;5114207;28;20349;-59
2021/04/25 01:18:27;;;;;;;;;;;;;;;;;;5114973;28;19961;-58
2021/04/25 01:20:53;;;;;;;;;;;;;;;;;;5115333;28;19912;-59
2021/04/25 01:23:19;;;;;;;;;;;;;;;;;;5114805;28;19934;-53
2021/04/25 01:25:45;;;;;;;;;;;;;;;;;;5115096;28;20285;-59
2021/04/25 01:28:10;;;;;;;;;;;;;;;;;;5114702;28;19934;-59
2021/04/25 01:30:36;;;;;;;;;;;;;;;;;;5114124;28;19916;-58
2021/04/25 01:33:02;;;;;;;;;;;;;;;;;;5113724;28;19960;-59
2021/04/25 01:35:28;;;;;;;;;;;;;;;;;;5094666;28;19967;-56
2021/04/25 01:37:54;;;;;;;;;;;;;;;;;;5113726;28;19950;-57
2021/04/25 01:40:20;;;;;;;;;;;;;;;;;;5113293;28;20348;-58
2021/04/25 01:42:46;;;;;;;;;;;;;;;;;;5114543;28;19912;-56
2021/04/25 01:45:16;;;;;;;;;;;;;;;;;;5106619;28;20377;-58
2021/04/25 01:47:42;;;;;;;;;;;;;;;;;;5096686;28;19909;-55
2021/04/25 01:50:08;;;;;;;;;;;;;;;;;;5101492;28;20362;-58
2021/04/25 01:52:33;;;;;;;;;;;;;;;;;;5116159;28;19912;-58
2021/04/25 01:54:59;;;;;;;;;;;;;;;;;;5102890;28;20399;-58
2021/04/25 01:57:25;;;;;;;;;;;;;;;;;;5116757;28;19941;-57
2021/04/25 01:59:51;;;;;;;;;;;;;;;;;;5116535;28;19916;-56
2021/04/25 02:02:17;;;;;;;;;;;;;;;;;;5106197;28;19915;-56
2021/04/25 02:04:43;;;;;;;;;;;;;;;;;;5098775;28;19908;-57
2021/04/25 02:07:09;;;;;;;;;;;;;;;;;;5116271;28;19916;-55
2021/04/25 02:09:35;;;;;;;;;;;;;;;;;;5116059;28;20065;-56
2021/04/25 02:12:01;;;;;;;;;;;;;;;;;;5116406;28;20432;-57
2021/04/25 02:14:27;;;;;;;;;;;;;;;;;;5116380;28;19908;-58
2021/04/25 02:16:53;;;;;;;;;;;;;;;;;;5116933;28;19907;-57
2021/04/25 02:19:19;;;;;;;;;;;;;;;;;;5116590;28;20288;-58
2021/04/25 02:21:45;;;;;;;;;;;;;;;;;;5116673;28;19994;-58
2021/04/25 02:24:11;;;;;;;;;;;;;;;;;;5116490;28;19959;-57
2021/04/25 02:26:36;;;;;;;;;;;;;;;;;;5116896;28;20312;-58
2021/04/25 02:29:02;;;;;;;;;;;;;;;;;;5116528;28;20002;-58
2021/04/25 02:31:28;;;;;;;;;;;;;;;;;;5116692;28;20034;-58
2021/04/25 02:33:54;;;;;;;;;;;;;;;;;;5116456;28;19998;-58
2021/04/25 02:36:20;;;;;;;;;;;;;;;;;;5116322;28;20033;-57
2021/04/25 02:38:46;;;;;;;;;;;;;;;;;;5116258;28;19912;-58
2021/04/25 02:41:12;;;;;;;;;;;;;;;;;;5118057;28;19912;-60
2021/04/25 02:43:38;;;;;;;;;;;;;;;;;;5120354;28;19908;-60
2021/04/25 02:46:04;;;;;;;;;;;;;;;;;;5115465;28;20369;-57
2021/04/25 02:48:30;;;;;;;;;;;;;;;;;;5117305;28;20433;-60
2021/04/25 02:50:56;;;;;;;;;;;;;;;;;;5109173;28;20355;-59
2021/04/25 02:53:22;;;;;;;;;;;;;;;;;;5108989;28;19911;-60
2021/04/25 02:55:47;;;;;;;;;;;;;;;;;;5103651;28;20273;-64
2021/04/25 02:58:13;;;;;;;;;;;;;;;;;;5113685;28;19998;-59
2021/04/25 03:00:39;;;;;;;;;;;;;;;;;;5115515;28;20010;-58
2021/04/25 03:03:05;;;;;;;;;;;;;;;;;;5113890;28;20010;-58
2021/04/25 03:05:31;;;;;;;;;;;;;;;;;;5094838;28;19915;-58
2021/04/25 03:07:57;;;;;;;;;;;;;;;;;;5094947;28;19931;-57
2021/04/25 03:10:23;;;;;;;;;;;;;;;;;;5108615;28;19920;-54
2021/04/25 03:12:49;;;;;;;;;;;;;;;;;;5106961;28;19951;-55
2021/04/25 03:15:15;;;;;;;;;;;;;;;;;;5115134;28;19931;-57
2021/04/25 03:17:41;;;;;;;;;;;;;;;;;;5115340;28;19970;-57
2021/04/25 03:20:07;;;;;;;;;;;;;;;;;;5099145;28;19908;-57
2021/04/25 03:22:33;;;;;;;;;;;;;;;;;;5095211;28;19908;-54
2021/04/25 03:24:59;;;;;;;;;;;;;;;;;;5094624;28;19919;-56
2021/04/25 03:27:25;;;;;;;;;;;;;;;;;;5114200;28;19907;-56
2021/04/25 03:29:51;;;;;;;;;;;;;;;;;;5114897;28;19915;-53
2021/04/25 03:32:16;;;;;;;;;;;;;;;;;;5115137;28;19974;-56
2021/04/25 03:34:45;;;;;;;;;;;;;;;;;;5115477;28;19969;-57
2021/04/25 03:37:11;;;;;;;;;;;;;;;;;;5115015;28;19914;-58
2021/04/25 03:39:36;;;;;;;;;;;;;;;;;;5115368;28;19911;-58
2021/04/25 03:42:03;;;;;;;;;;;;;;;;;;5115086;28;19916;-57
2021/04/25 03:44:29;;;;;;;;;;;;;;;;;;5114763;28;19920;-53
2021/04/25 03:46:54;;;;;;;;;;;;;;;;;;5115423;28;20357;-59
2021/04/25 03:49:21;;;;;;;;;;;;;;;;;;5114902;28;19912;-57
2021/04/25 03:51:47;;;;;;;;;;;;;;;;;;5115084;28;19915;-57
2021/04/25 03:54:13;;;;;;;;;;;;;;;;;;5114390;28;19914;-57
2021/04/25 03:56:38;;;;;;;;;;;;;;;;;;5115212;28;20333;-57
2021/04/25 03:59:04;;;;;;;;;;;;;;;;;;5114847;28;19908;-57
2021/04/25 04:01:30;;;;;;;;;;;;;;;;;;5103927;28;19934;-58
2021/04/25 04:03:56;;;;;;;;;;;;;;;;;;5093742;28;19912;-57
2021/04/25 04:06:22;;;;;;;;;;;;;;;;;;5098362;28;19991;-56
2021/04/25 04:08:48;;;;;;;;;;;;;;;;;;5113794;28;20022;-57
2021/04/25 04:11:14;;;;;;;;;;;;;;;;;;5099837;28;19927;-57
2021/04/25 04:13:40;;;;;;;;;;;;;;;;;;5114217;28;19907;-57
2021/04/25 04:16:06;;;;;;;;;;;;;;;;;;5113701;28;20250;-57
2021/04/25 04:18:32;;;;;;;;;;;;;;;;;;5114114;28;19908;-57
2021/04/25 04:20:58;;;;;;;;;;;;;;;;;;5113662;28;19908;-57
2021/04/25 04:23:24;;;;;;;;;;;;;;;;;;5113988;28;19908;-57
2021/04/25 04:25:50;;;;;;;;;;;;;;;;;;5113202;28;19991;-57
2021/04/25 04:28:15;;;;;;;;;;;;;;;;;;5095838;28;19994;-56
2021/04/25 04:30:41;;;;;;;;;;;;;;;;;;5113776;28;19924;-58
2021/04/25 04:33:07;;;;;;;;;;;;;;;;;;5113632;28;19915;-59
2021/04/25 04:35:33;;;;;;;;;;;;;;;;;;5103836;28;19908;-56
2021/04/25 04:37:59;;;;;;;;;;;;;;;;;;5109504;28;20372;-54
2021/04/25 04:40:25;;;;;;;;;;;;;;;;;;5113462;28;20406;-57
2021/04/25 04:42:51;;;;;;;;;;;;;;;;;;5113313;28;20278;-56
2021/04/25 04:45:17;;;;;;;;;;;;;;;;;;5113443;28;20006;-57
2021/04/25 04:47:43;;;;;;;;;;;;;;;;;;5113886;28;19912;-57
2021/04/25 04:50:09;;;;;;;;;;;;;;;;;;5110317;28;19912;-56
2021/04/25 04:52:35;;;;;;;;;;;;;;;;;;5104746;28;20278;-56
2021/04/25 04:55:00;;;;;;;;;;;;;;;;;;5115044;28;19908;-57
2021/04/25 04:57:26;;;;;;;;;;;;;;;;;;5115301;28;19908;-58
2021/04/25 04:59:52;;;;;;;;;;;;;;;;;;5114878;28;19908;-56
2021/04/25 05:02:18;;;;;;;;;;;;;;;;;;5113720;28;19914;-57
2021/04/25 05:04:44;;;;;;;;;;;;;;;;;;5114148;28;19908;-52
2021/04/25 05:07:11;;;;;;;;;;;;;;;;;;5114100;28;19969;-58
2021/04/25 05:09:37;;;;;;;;;;;;;;;;;;5116752;28;19919;-67
2021/04/25 05:12:03;;;;;;;;;;;;;;;;;;5115499;28;19977;-57
2021/04/25 05:14:29;;;;;;;;;;;;;;;;;;5113336;28;19916;-55
2021/04/25 05:16:55;;;;;;;;;;;;;;;;;;5113561;28;19907;-56
2021/04/25 05:19:21;;;;;;;;;;;;;;;;;;5112388;28;20315;-57
2021/04/25 05:21:47;;;;;;;;;;;;;;;;;;5113080;28;19908;-57
2021/04/25 05:24:13;;;;;;;;;;;;;;;;;;5112391;28;19911;-57
2021/04/25 05:26:38;;;;;;;;;;;;;;;;;;5113071;28;20374;-58
2021/04/25 05:29:04;;;;;;;;;;;;;;;;;;5113504;28;19950;-54
2021/04/25 05:31:30;;;;;;;;;;;;;;;;;;5113533;28;19916;-58
2021/04/25 05:33:56;;;;;;;;;;;;;;;;;;5107068;28;19909;-57
2021/04/25 05:36:22;;;;;;;;;;;;;;;;;;5092229;28;19931;-58
2021/04/25 05:38:48;;;;;;;;;;;;;;;;;;5078255;28;20251;-58
2021/04/25 05:41:14;;;;;;;;;;;;;;;;;;5109757;28;19918;-58
2021/04/25 05:43:40;;;;;;;;;;;;;;;;;;5098602;28;19948;-58
2021/04/25 05:46:06;;;;;;;;;;;;;;;;;;5112422;28;19966;-58
2021/04/25 05:48:32;;;;;;;;;;;;;;;;;;5112610;28;19908;-57
2021/04/25 05:50:58;;;;;;;;;;;;;;;;;;5092298;28;19928;-52
2021/04/25 05:53:23;;;;;;;;;;;;;;;;;;5093690;28;19916;-57
2021/04/25 05:55:49;;;;;;;;;;;;;;;;;;5112002;28;19908;-55
2021/04/25 05:58:15;;;;;;;;;;;;;;;;;;5114865;28;19959;-58
2021/04/25 06:00:41;;;;;;;;;;;;;;;;;;5113022;28;19955;-58
2021/04/25 06:03:07;;;;;;;;;;;;;;;;;;5113440;28;19951;-58
2021/04/25 06:05:33;;;;;;;;;;;;;;;;;;5113911;28;19908;-57
2021/04/25 06:07:59;;;;;;;;;;;;;;;;;;5108735;28;19916;-59
2021/04/25 06:10:26;;;;;;;;;;;;;;;;;;5095116;28;19966;-64
2021/04/25 06:12:52;;;;;;;;;;;;;;;;;;5108087;28;19990;-57
2021/04/25 06:15:18;;;;;;;;;;;;;;;;;;5104444;28;19914;-58
2021/04/25 06:17:44;;;;;;;;;;;;;;;;;;5114418;28;19954;-60
2021/04/25 06:20:11;;;;;;;;;;;;;;;;;;5116718;28;19908;-62
2021/04/25 06:22:37;;;;;;;;;;;;;;;;;;5095907;28;19962;-58
2021/04/25 06:25:03;;;;;;;;;;;;;;;;;;5113294;28;19912;-58
2021/04/25 06:27:29;;;;;;;;;;;;;;;;;;5112251;28;19911;-58
2021/04/25 06:29:55;;;;;;;;;;;;;;;;;;5113134;28;20414;-57
2021/04/25 06:32:21;;;;;;;;;;;;;;;;;;5116044;28;19963;-52
2021/04/25 06:34:47;;;;;;;;;;;;;;;;;;5115852;28;20010;-58
2021/04/25 06:37:13;;;;;;;;;;;;;;;;;;5116583;28;19954;-61
2021/04/25 06:39:38;;;;;;;;;;;;;;;;;;5117152;28;19916;-60
2021/04/25 06:42:04;;;;;;;;;;;;;;;;;;5111364;28;19957;-56
2021/04/25 06:44:30;;;;;;;;;;;;;;;;;;5108331;28;19943;-56
2021/04/25 06:46:56;;;;;;;;;;;;;;;;;;5095692;28;19915;-57
2021/04/25 06:49:22;;;;;;;;;;;;;;;;;;5097658;28;19916;-58
2021/04/25 06:51:48;;;;;;;;;;;;;;;;;;5110459;28;19916;-58
2021/04/25 06:54:14;;;;;;;;;;;;;;;;;;5113221;28;19914;-58
2021/04/25 06:56:40;;;;;;;;;;;;;;;;;;5114236;28;20347;-57
2021/04/25 06:59:06;;;;;;;;;;;;;;;;;;5113273;28;19911;-57
2021/04/25 07:01:32;;;;;;;;;;;;;;;;;;5114782;28;19919;-57
2021/04/25 07:03:58;;;;;;;;;;;;;;;;;;5112049;28;20278;-57
2021/04/25 07:06:24;;;;;;;;;;;;;;;;;;5110529;28;19912;-58
2021/04/25 07:08:50;;;;;;;;;;;;;;;;;;5103364;28;19916;-57
2021/04/25 07:11:15;;;;;;;;;;;;;;;;;;5108867;28;19924;-59
2021/04/25 07:13:41;;;;;;;;;;;;;;;;;;5112106;28;19915;-58
2021/04/25 07:16:07;;;;;;;;;;;;;;;;;;5103786;28;19919;-61
2021/04/25 07:18:33;;;;;;;;;;;;;;;;;;5113145;28;19912;-57
2021/04/25 07:20:59;;;;;;;;;;;;;;;;;;5111044;28;19916;-58
2021/04/25 07:23:25;;;;;;;;;;;;;;;;;;5114833;28;19912;-58
2021/04/25 07:25:51;;;;;;;;;;;;;;;;;;5114281;28;19949;-57
2021/04/25 07:28:18;;;;;;;;;;;;;;;;;;5111530;28;19961;-58
2021/04/25 07:30:44;;;;;;;;;;;;;;;;;;5112590;28;19951;-59
2021/04/25 07:33:10;;;;;;;;;;;;;;;;;;5103348;28;20370;-57
2021/04/25 07:35:36;;;;;;;;;;;;;;;;;;5095503;28;20313;-58
2021/04/25 07:38:02;;;;;;;;;;;;;;;;;;5103927;28;19927;-66
2021/04/25 07:40:28;;;;;;;;;;;;;;;;;;5106682;28;19919;-59
2021/04/25 07:42:54;;;;;;;;;;;;;;;;;;5104775;28;19912;-58
2021/04/25 07:45:20;;;;;;;;;;;;;;;;;;5102992;28;19918;-57
2021/04/25 07:47:46;;;;;;;;;;;;;;;;;;5103419;28;19908;-59
2021/04/25 07:50:13;;;;;;;;;;;;;;;;;;5104267;28;20340;-59
2021/04/25 07:52:39;;;;;;;;;;;;;;;;;;5105582;28;19922;-58
2021/04/25 07:55:05;;;;;;;;;;;;;;;;;;5103275;28;19908;-58
2021/04/25 07:57:31;;;;;;;;;;;;;;;;;;5104227;28;19908;-58
2021/04/25 07:59:57;;;;;;;;;;;;;;;;;;5101090;28;19937;-60
2021/04/25 08:02:23;;;;;;;;;;;;;;;;;;5103678;28;19919;-58
2021/04/25 08:04:49;;;;;;;;;;;;;;;;;;5102279;28;20074;-56
2021/04/25 08:07:14;;;;;;;;;;;;;;;;;;5111695;28;19999;-59
2021/04/25 08:09:40;;;;;;;;;;;;;;;;;;5110058;28;19920;-59
2021/04/25 08:12:06;;;;;;;;;;;;;;;;;;5106492;28;19946;-59
2021/04/25 08:14:32;;;;;;;;;;;;;;;;;;5106757;28;19915;-59
2021/04/25 08:16:58;;;;;;;;;;;;;;;;;;5101363;28;19908;-57
2021/04/25 08:19:24;;;;;;;;;;;;;;;;;;5093266;28;19908;-57
2021/04/25 08:21:50;;;;;;;;;;;;;;;;;;5075604;28;19950;-57
2021/04/25 08:24:16;;;;;;;;;;;;;;;;;;5107771;28;19947;-57
2021/04/25 08:26:42;;;;;;;;;;;;;;;;;;5093459;28;20267;-58
2021/04/25 08:29:08;;;;;;;;;;;;;;;;;;5093256;28;19908;-57
2021/04/25 08:31:34;;;;;;;;;;;;;;;;;;5093098;28;19920;-58
2021/04/25 08:34:00;;;;;;;;;;;;;;;;;;5093309;28;19950;-57
2021/04/25 08:36:25;;;;;;;;;;;;;;;;;;5111612;28;19915;-57
2021/04/25 08:38:51;;;;;;;;;;;;;;;;;;5113906;28;20388;-57
2021/04/25 08:41:17;;;;;;;;;;;;;;;;;;5111382;28;19912;-58
2021/04/25 08:43:43;;;;;;;;;;;;;;;;;;5093380;28;19990;-58
2021/04/25 08:46:09;;;;;;;;;;;;;;;;;;5092787;28;19919;-56
2021/04/25 08:48:35;;;;;;;;;;;;;;;;;;5093226;28;19919;-58
2021/04/25 08:51:01;;;;;;;;;;;;;;;;;;5093056;28;19917;-57
2021/04/25 08:53:27;;;;;;;;;;;;;;;;;;5092452;28;19915;-56
2021/04/25 08:55:53;;;;;;;;;;;;;;;;;;5113418;28;19907;-58
2021/04/25 08:58:20;;;;;;;;;;;;;;;;;;5112979;28;20346;-56
2021/04/25 09:00:46;;;;;;;;;;;;;;;;;;5113269;28;20063;-57
2021/04/25 09:03:12;;;;;;;;;;;;;;;;;;5113280;28;19925;-57
2021/04/25 09:05:38;;;;;;;;;;;;;;;;;;5113458;28;20264;-57
2021/04/25 09:08:04;;;;;;;;;;;;;;;;;;5113111;28;19908;-58
2021/04/25 09:10:30;;;;;;;;;;;;;;;;;;5112783;28;19923;-56
2021/04/25 09:12:58;;;;;;;;;;;;;;;;;;5104171;28;20290;-57
2021/04/25 09:15:24;;;;;;;;;;;;;;;;;;5107668;28;19908;-61
2021/04/25 09:17:49;;;;;;;;;;;;;;;;;;5092610;28;19915;-58
2021/04/25 09:20:15;;;;;;;;;;;;;;;;;;5092051;28;19952;-61
2021/04/25 09:22:42;;;;;;;;;;;;;;;;;;5074392;28;20420;-65
2021/04/25 09:25:08;;;;;;;;;;;;;;;;;;5092512;28;19908;-65
2021/04/25 09:27:34;;;;;;;;;;;;;;;;;;5092564;28;19912;-67
2021/04/25 09:30:00;;;;;;;;;;;;;;;;;;5092888;28;19919;-67
2021/04/25 09:32:26;;;;;;;;;;;;;;;;;;5092303;28;19917;-60
2021/04/25 09:34:54;;;;;;;;;;;;;;;;;;5092374;28;19908;-66
2021/04/25 09:37:20;;;;;;;;;;;;;;;;;;5092285;28;19912;-65
2021/04/25 09:39:46;;;;;;;;;;;;;;;;;;5092359;28;19919;-65
2021/04/25 09:42:11;;;;;;;;;;;;;;;;;;5092477;28;19916;-65
2021/04/25 09:44:37;;;;;;;;;;;;;;;;;;5092135;28;20394;-63
2021/04/25 09:47:04;;;;;;;;;;;;;;;;;;5092021;28;19915;-65
2021/04/25 09:49:30;;;;;;;;;;;;;;;;;;5092228;28;19916;-62
2021/04/25 09:51:56;;;;;;;;;;;;;;;;;;5092655;28;20273;-64
2021/04/25 09:54:21;;;;;;;;;;;;;;;;;;5091957;28;19909;-65
2021/04/25 09:56:47;;;;;;;;;;;;;;;;;;5092279;28;19908;-65
2021/04/25 09:59:13;;;;;;;;;;;;;;;;;;5092315;28;19916;-65
2021/04/25 10:01:39;;;;;;;;;;;;;;;;;;5073846;28;19912;-65
2021/04/25 10:04:05;;;;;;;;;;;;;;;;;;5093836;28;19908;-65
2021/04/25 10:06:31;;;;;;;;;;;;;;;;;;5095697;28;19908;-65
2021/04/25 10:08:57;;;;;;;;;;;;;;;;;;5096424;28;19926;-65
2021/04/25 10:11:25;;;;;;;;;;;;;;;;;;5096477;28;19930;-66
2021/04/25 10:13:51;;;;;;;;;;;;;;;;;;5098682;28;19914;-65
2021/04/25 10:16:17;;;;;;;;;;;;;;;;;;5107007;28;19958;-61
2021/04/25 10:18:43;;;;;;;;;;;;;;;;;;5095761;28;19944;-62
2021/04/25 10:21:09;;;;;;;;;;;;;;;;;;5103155;28;19958;-61
2021/04/25 10:23:35;;;;;;;;;;;;;;;;;;5116141;28;19915;-61
2021/04/25 10:26:01;;;;;;;;;;;;;;;;;;5116151;28;19908;-57
2021/04/25 10:28:27;;;;;;;;;;;;;;;;;;5116022;28;19999;-60
2021/04/25 10:30:53;;;;;;;;;;;;;;;;;;5115615;28;19962;-59
2021/04/25 10:33:19;;;;;;;;;;;;;;;;;;5116619;28;19958;-61
2021/04/25 10:35:44;;;;;;;;;;;;;;;;;;5115984;28;19908;-62
2021/04/25 10:38:12;;;;;;;;;;;;;;;;;;5116875;28;20416;-61
2021/04/25 10:40:47;;;;;;;;;;;;;;;;;;5116372;28;19922;-61
2021/04/25 10:43:14;;;;;;;;;;;;;;;;;;5117088;28;19939;-61
2021/04/25 10:45:40;;;;;;;;;;;;;;;;;;5116899;28;20306;-62
2021/04/25 10:48:06;;;;;;;;;;;;;;;;;;5117023;28;20749;-62
2021/04/25 10:50:34;;;;;;;;;;;;;;;;;;5115772;28;20010;-62
2021/04/25 10:52:59;;;;;;;;;;;;;;;;;;5115618;28;20468;-61
2021/04/25 10:55:30;;;;;;;;;;;;;;;;;;5115816;28;19951;-62
2021/04/25 10:58:00;;;;;;;;;;;;;;;;;;5115451;28;19908;-61
2021/04/25 11:00:26;;;;;;;;;;;;;;;;;;5115887;28;20262;-62
2021/04/25 11:02:52;;;;;;;;;;;;;;;;;;5115135;28;19908;-61
2021/04/25 11:05:18;;;;;;;;;;;;;;;;;;5115571;28;20034;-60
2021/04/25 11:07:44;;;;;;;;;;;;;;;;;;5115449;28;20002;-62
2021/04/25 11:10:10;;;;;;;;;;;;;;;;;;5115073;28;19924;-62
2021/04/25 11:12:36;;;;;;;;;;;;;;;;;;5115563;28;19965;-62
2021/04/25 11:15:02;;;;;;;;;;;;;;;;;;5114943;28;20012;-61
2021/04/25 11:17:28;;;;;;;;;;;;;;;;;;5115393;28;20411;-59
2021/04/25 11:19:54;;;;;;;;;;;;;;;;;;5115503;28;19953;-60
2021/04/25 11:22:20;;;;;;;;;;;;;;;;;;5115802;28;19912;-61
2021/04/25 11:24:46;;;;;;;;;;;;;;;;;;5115123;28;19953;-61
2021/04/25 11:27:11;;;;;;;;;;;;;;;;;;5097435;28;20327;-61
2021/04/25 11:29:37;;;;;;;;;;;;;;;;;;5115082;28;19908;-61
2021/04/25 11:32:03;;;;;;;;;;;;;;;;;;5115572;28;20258;-61
2021/04/25 11:34:31;;;;;;;;;;;;;;;;;;5096718;28;19919;-61
2021/04/25 11:36:57;;;;;;;;;;;;;;;;;;5115604;28;19930;-61
2021/04/25 11:39:22;;;;;;;;;;;;;;;;;;5115279;28;20005;-61
2021/04/25 11:41:48;;;;;;;;;;;;;;;;;;5115144;28;19983;-60
2021/04/25 11:44:14;;;;;;;;;;;;;;;;;;5077510;28;19908;-58
2021/04/25 11:46:40;;;;;;;;;;;;;;;;;;5097685;28;19908;-60
2021/04/25 11:49:06;;;;;;;;;;;;;;;;;;5106017;28;19914;-62
2021/04/25 11:51:32;;;;;;;;;;;;;;;;;;5103773;28;20281;-61
2021/04/25 11:53:58;;;;;;;;;;;;;;;;;;5111063;28;19912;-60
2021/04/25 11:56:24;;;;;;;;;;;;;;;;;;5105907;28;20366;-62
2021/04/25 11:58:50;;;;;;;;;;;;;;;;;;5094249;28;19945;-60
2021/04/25 12:01:16;;;;;;;;;;;;;;;;;;5100194;28;20346;-58
2021/04/25 12:03:42;;;;;;;;;;;;;;;;;;5114230;28;20353;-61
2021/04/25 12:06:08;;;;;;;;;;;;;;;;;;5105321;28;19943;-62
2021/04/25 12:08:34;;;;;;;;;;;;;;;;;;5112058;28;19986;-60
2021/04/25 12:11:00;;;;;;;;;;;;;;;;;;5111838;28;19982;-62
2021/04/25 12:13:31;;;;;;;;;;;;;;;;;;5107308;28;19943;-59
2021/04/25 12:15:57;;;;;;;;;;;;;;;;;;5109072;28;20285;-61
2021/04/25 12:18:23;;;;;;;;;;;;;;;;;;5110004;28;19907;-61
2021/04/25 12:20:48;;;;;;;;;;;;;;;;;;5092780;28;19908;-61
2021/04/25 12:23:14;;;;;;;;;;;;;;;;;;5111264;28;19912;-63
2021/04/25 12:25:40;;;;;;;;;;;;;;;;;;5112473;28;19960;-62
2021/04/25 12:28:06;;;;;;;;;;;;;;;;;;5109041;28;19984;-61
2021/04/25 12:30:32;;;;;;;;;;;;;;;;;;5107906;28;19907;-61
2021/04/25 12:32:58;;;;;;;;;;;;;;;;;;5111134;28;19923;-61
2021/04/25 12:35:25;;;;;;;;;;;;;;;;;;5107043;28;19908;-62
2021/04/25 12:37:51;;;;;;;;;;;;;;;;;;5076805;28;20000;-59
2021/04/25 12:40:17;;;;;;;;;;;;;;;;;;5094815;28;19912;-64
2021/04/25 12:42:43;;;;;;;;;;;;;;;;;;5094956;28;20259;-58
2021/04/25 12:45:09;;;;;;;;;;;;;;;;;;5093073;28;19957;-61
2021/04/25 12:47:35;;;;;;;;;;;;;;;;;;5093496;28;19940;-61
2021/04/25 12:50:01;;;;;;;;;;;;;;;;;;5092429;28;19912;-61
2021/04/25 12:52:27;;;;;;;;;;;;;;;;;;5099128;28;19977;-65
2021/04/25 12:54:53;;;;;;;;;;;;;;;;;;5113136;28;20342;-65
2021/04/25 12:57:18;;;;;;;;;;;;;;;;;;5113172;28;19908;-62
2021/04/25 12:59:44;;;;;;;;;;;;;;;;;;5113046;28;19933;-60
2021/04/25 13:02:12;;;;;;;;;;;;;;;;;;5113017;28;19911;-60
2021/04/25 13:04:38;;;;;;;;;;;;;;;;;;5113205;28;19912;-69
2021/04/25 13:07:03;;;;;;;;;;;;;;;;;;5112615;28;19914;-70
2021/04/25 13:09:29;;;;;;;;;;;;;;;;;;5112836;28;19928;-72
2021/04/25 13:11:55;;;;;;;;;;;;;;;;;;5094722;28;20037;-71
2021/04/25 13:14:21;;;;;;;;;;;;;;;;;;5112835;28;19923;-66
2021/04/25 13:16:51;;;;;;;;;;;;;;;;;;5112623;28;20399;-69
2021/04/25 13:19:17;;;;;;;;;;;;;;;;;;5112546;28;19912;-69
2021/04/25 13:21:43;;;;;;;;;;;;;;;;;;5112551;28;20377;-68
2021/04/25 13:24:09;;;;;;;;;;;;;;;;;;5112945;28;19912;-59
2021/04/25 13:26:35;;;;;;;;;;;;;;;;;;5094596;28;20278;-67
2021/04/25 13:29:01;;;;;;;;;;;;;;;;;;5112745;28;19914;-66
2021/04/25 13:31:27;;;;;;;;;;;;;;;;;;5112627;28;19966;-63
2021/04/25 13:33:53;;;;;;;;;;;;;;;;;;5112602;28;19953;-64
2021/04/25 13:36:21;;;;;;;;;;;;;;;;;;5098369;28;19911;-61
2021/04/25 13:38:47;;;;;;;;;;;;;;;;;;5095544;28;20034;-60
2021/04/25 13:41:13;;;;;;;;;;;;;;;;;;5116897;28;20384;-61
2021/04/25 13:43:39;;;;;;;;;;;;;;;;;;5098734;28;19946;-62
2021/04/25 13:46:05;;;;;;;;;;;;;;;;;;5116590;28;20362;-61
2021/04/25 13:48:31;;;;;;;;;;;;;;;;;;5116681;28;20003;-60
2021/04/25 13:50:57;;;;;;;;;;;;;;;;;;5108567;28;20385;-61
2021/04/25 13:53:23;;;;;;;;;;;;;;;;;;5110672;28;19908;-62
2021/04/25 13:55:49;;;;;;;;;;;;;;;;;;5116599;28;20360;-59
2021/04/25 13:58:15;;;;;;;;;;;;;;;;;;5126871;27;19907;-62
2021/04/25 14:00:41;;;;;;;;;;;;;;;;;;5118661;27;20384;-61
2021/04/25 14:03:08;;;;;;;;;;;;;;;;;;5116704;28;20324;-61
2021/04/25 14:05:34;;;;;;;;;;;;;;;;;;5116263;28;19918;-61
2021/04/25 14:08:00;;;;;;;;;;;;;;;;;;5116846;28;19908;-57
2021/04/25 14:10:26;;;;;;;;;;;;;;;;;;5116007;28;19981;-60
2021/04/25 14:12:52;;;;;;;;;;;;;;;;;;5116645;28;19916;-60
2021/04/25 14:15:18;;;;;;;;;;;;;;;;;;5116098;28;19953;-60
2021/04/25 14:17:44;;;;;;;;;;;;;;;;;;5116235;28;19988;-61
2021/04/25 14:20:10;;;;;;;;;;;;;;;;;;5116361;27;20321;-60
2021/04/25 14:22:36;;;;;;;;;;;;;;;;;;5114674;27;19915;-62
2021/04/25 14:25:02;;;;;;;;;;;;;;;;;;5113989;27;19911;-62
2021/04/25 14:27:28;;;;;;;;;;;;;;;;;;5096895;27;20346;-60
2021/04/25 14:29:54;;;;;;;;;;;;;;;;;;5095957;28;19934;-59
2021/04/25 14:32:20;;;;;;;;;;;;;;;;;;5095261;28;19968;-58
2021/04/25 14:34:46;;;;;;;;;;;;;;;;;;5095665;28;19998;-62
2021/04/25 14:37:12;;;;;;;;;;;;;;;;;;5095655;28;20020;-62
2021/04/25 14:39:38;;;;;;;;;;;;;;;;;;5095328;28;20382;-57
2021/04/25 14:42:04;;;;;;;;;;;;;;;;;;5096144;28;19955;-60
2021/04/25 14:44:30;;;;;;;;;;;;;;;;;;5095241;28;19916;-58
2021/04/25 14:46:56;;;;;;;;;;;;;;;;;;5095294;28;20376;-58
2021/04/25 14:49:22;;;;;;;;;;;;;;;;;;5095420;28;20338;-63
2021/04/25 14:51:48;;;;;;;;;;;;;;;;;;5094668;28;19924;-61
2021/04/25 14:54:14;;;;;;;;;;;;;;;;;;5115647;28;19908;-58
2021/04/25 14:56:40;;;;;;;;;;;;;;;;;;5115672;28;19943;-61
2021/04/25 14:59:06;;;;;;;;;;;;;;;;;;5097017;28;20407;-60
2021/04/25 15:01:32;;;;;;;;;;;;;;;;;;5115634;28;19954;-60
2021/04/25 15:03:58;;;;;;;;;;;;;;;;;;5115276;28;20014;-58
2021/04/25 15:06:24;;;;;;;;;;;;;;;;;;5097032;28;19907;-61
2021/04/25 15:08:50;;;;;;;;;;;;;;;;;;5117142;28;19922;-61
2021/04/25 15:11:15;;;;;;;;;;;;;;;;;;5111316;28;19945;-60
2021/04/25 15:13:41;;;;;;;;;;;;;;;;;;5110456;28;19915;-60
2021/04/25 15:16:07;;;;;;;;;;;;;;;;;;5119097;28;19912;-60
2021/04/25 15:18:33;;;;;;;;;;;;;;;;;;5124152;28;19914;-60
2021/04/25 15:20:59;;;;;;;;;;;;;;;;;;5118260;28;19947;-60
2021/04/25 15:23:25;;;;;;;;;;;;;;;;;;5117463;28;19958;-59
2021/04/25 15:25:51;;;;;;;;;;;;;;;;;;5116567;28;20388;-60
2021/04/25 15:28:19;;;;;;;;;;;;;;;;;;5115836;28;20403;-56
